sensor_id;sensor_type;location;lat;lon;timestamp;pressure;altitude;pressure_sealevel;temperature
60936;BMP280;46804;51.786;19.520;2023-03-01T00:01:21;153174.56;;;-3.73
60936;BMP280;46804;51.786;19.520;2023-03-01T00:05:22;153175.81;;;-3.72
60936;BMP280;46804;51.786;19.520;2023-03-01T00:09:22;153163.16;;;-3.77
60936;BMP280;46804;51.786;19.520;2023-03-01T00:13:23;153145.41;;;-3.84
60936;BMP280;46804;51.786;19.520;2023-03-01T00:17:24;153144.13;;;-3.85
60936;BMP280;46804;51.786;19.520;2023-03-01T00:21:25;153132.72;;;-3.89
60936;BMP280;46804;51.786;19.520;2023-03-01T00:25:26;153116.25;;;-3.96
60936;BMP280;46804;51.786;19.520;2023-03-01T00:29:26;153134.00;;;-3.89
60936;BMP280;46804;51.786;19.520;2023-03-01T00:33:27;153122.56;;;-3.93
60936;BMP280;46804;51.786;19.520;2023-03-01T00:37:27;153121.28;;;-3.94
60936;BMP280;46804;51.786;19.520;2023-03-01T00:41:28;153098.44;;;-4.03
60936;BMP280;46804;51.786;19.520;2023-03-01T00:45:29;153092.13;;;-4.05
60936;BMP280;46804;51.786;19.520;2023-03-01T00:49:31;153088.34;;;-4.06
60936;BMP280;46804;51.786;19.520;2023-03-01T00:53:32;153068.03;;;-4.14
60936;BMP280;46804;51.786;19.520;2023-03-01T00:57:33;153066.78;;;-4.15
60936;BMP280;46804;51.786;19.520;2023-03-01T01:01:34;153064.22;;;-4.16
60936;BMP280;46804;51.786;19.520;2023-03-01T01:05:35;153047.75;;;-4.22
60936;BMP280;46804;51.786;19.520;2023-03-01T01:09:35;153040.16;;;-4.25
60936;BMP280;46804;51.786;19.520;2023-03-01T01:13:38;153035.06;;;-4.27
60936;BMP280;46804;51.786;19.520;2023-03-01T01:17:38;153045.22;;;-4.23
60936;BMP280;46804;51.786;19.520;2023-03-01T01:21:40;153030.00;;;-4.29
60936;BMP280;46804;51.786;19.520;2023-03-01T01:25:43;153024.94;;;-4.31
60936;BMP280;46804;51.786;19.520;2023-03-01T01:29:44;153000.84;;;-4.40
60936;BMP280;46804;51.786;19.520;2023-03-01T01:33:45;153002.13;;;-4.40
60936;BMP280;46804;51.786;19.520;2023-03-01T01:37:46;153007.19;;;-4.38
60936;BMP280;46804;51.786;19.520;2023-03-01T01:41:47;153011.00;;;-4.37
60936;BMP280;46804;51.786;19.520;2023-03-01T01:45:48;152988.19;;;-4.45
60936;BMP280;46804;51.786;19.520;2023-03-01T01:49:51;152974.22;;;-4.51
60936;BMP280;46804;51.786;19.520;2023-03-01T01:53:58;152978.03;;;-4.49
60936;BMP280;46804;51.786;19.520;2023-03-01T01:58:04;152961.56;;;-4.56
60936;BMP280;46804;51.786;19.520;2023-03-01T02:02:07;152957.75;;;-4.57
60936;BMP280;46804;51.786;19.520;2023-03-01T02:06:22;152969.16;;;-4.53
60936;BMP280;46804;51.786;19.520;2023-03-01T02:10:32;152962.81;;;-4.55
60936;BMP280;46804;51.786;19.520;2023-03-01T02:14:33;152962.81;;;-4.55
60936;BMP280;46804;51.786;19.520;2023-03-01T02:18:34;152948.91;;;-4.61
60936;BMP280;46804;51.786;19.520;2023-03-01T02:22:37;152953.97;;;-4.59
60936;BMP280;46804;51.786;19.520;2023-03-01T02:26:46;152942.56;;;-4.63
60936;BMP280;46804;51.786;19.520;2023-03-01T02:30:49;152933.69;;;-4.67
60936;BMP280;46804;51.786;19.520;2023-03-01T02:35:12;152927.34;;;-4.69
60936;BMP280;46804;51.786;19.520;2023-03-01T02:39:17;152903.28;;;-4.78
60936;BMP280;46804;51.786;19.520;2023-03-01T02:43:22;152890.59;;;-4.83
60936;BMP280;46804;51.786;19.520;2023-03-01T02:47:24;152867.78;;;-4.92
60936;BMP280;46804;51.786;19.520;2023-03-01T02:55:50;152891.84;;;-4.83
60936;BMP280;46804;51.786;19.520;2023-03-01T02:59:52;152900.72;;;-4.79
60936;BMP280;46804;51.786;19.520;2023-03-01T03:03:54;152862.72;;;-4.94
60936;BMP280;46804;51.786;19.520;2023-03-01T03:07:55;152874.09;;;-4.90
60936;BMP280;46804;51.786;19.520;2023-03-01T03:11:56;152863.97;;;-4.94
60936;BMP280;46804;51.786;19.520;2023-03-01T03:15:57;152861.47;;;-4.95
60936;BMP280;46804;51.786;19.520;2023-03-01T03:19:58;152857.63;;;-4.96
60936;BMP280;46804;51.786;19.520;2023-03-01T03:24:02;152853.88;;;-4.98
60936;BMP280;46804;51.786;19.520;2023-03-01T03:28:04;152850.06;;;-4.99
60936;BMP280;46804;51.786;19.520;2023-03-01T03:32:09;152842.47;;;-5.02
60936;BMP280;46804;51.786;19.520;2023-03-01T03:36:18;152862.72;;;-4.94
60936;BMP280;46804;51.786;19.520;2023-03-01T03:40:20;152834.84;;;-5.05
60936;BMP280;46804;51.786;19.520;2023-03-01T03:44:21;152827.25;;;-5.08
60936;BMP280;46804;51.786;19.520;2023-03-01T03:48:21;152853.88;;;-4.98
60936;BMP280;46804;51.786;19.520;2023-03-01T03:52:22;152856.38;;;-4.97
60936;BMP280;46804;51.786;19.520;2023-03-01T03:56:23;152872.84;;;-4.90
60936;BMP280;46804;51.786;19.520;2023-03-01T04:00:26;152848.81;;;-5.00
60936;BMP280;46804;51.786;19.520;2023-03-01T04:04:27;152848.81;;;-5.00
60936;BMP280;46804;51.786;19.520;2023-03-01T04:08:28;152866.53;;;-4.93
60936;BMP280;46804;51.786;19.520;2023-03-01T04:12:29;152871.59;;;-4.91
60936;BMP280;46804;51.786;19.520;2023-03-01T04:16:29;152877.94;;;-4.88
60936;BMP280;46804;51.786;19.520;2023-03-01T04:20:33;152880.44;;;-4.87
60936;BMP280;46804;51.786;19.520;2023-03-01T04:24:35;152860.19;;;-4.95
60936;BMP280;46804;51.786;19.520;2023-03-01T04:28:38;152852.56;;;-4.98
60936;BMP280;46804;51.786;19.520;2023-03-01T04:32:40;152852.56;;;-4.98
60936;BMP280;46804;51.786;19.520;2023-03-01T04:36:41;152852.56;;;-4.98
60936;BMP280;46804;51.786;19.520;2023-03-01T04:40:42;152843.72;;;-5.02
60936;BMP280;46804;51.786;19.520;2023-03-01T04:44:44;152829.75;;;-5.07
60936;BMP280;46804;51.786;19.520;2023-03-01T04:48:45;152817.13;;;-5.12
60936;BMP280;46804;51.786;19.520;2023-03-01T04:52:48;152833.59;;;-5.06
60936;BMP280;46804;51.786;19.520;2023-03-01T04:56:49;152814.59;;;-5.13
60936;BMP280;46804;51.786;19.520;2023-03-01T05:00:50;152796.81;;;-5.20
60936;BMP280;46804;51.786;19.520;2023-03-01T05:04:50;152810.78;;;-5.14
60936;BMP280;46804;51.786;19.520;2023-03-01T05:08:51;152809.53;;;-5.15
60936;BMP280;46804;51.786;19.520;2023-03-01T05:12:52;152806.97;;;-5.16
60936;BMP280;46804;51.786;19.520;2023-03-01T05:16:53;152785.44;;;-5.24
60936;BMP280;46804;51.786;19.520;2023-03-01T05:20:55;152791.81;;;-5.22
60936;BMP280;46804;51.786;19.520;2023-03-01T05:24:58;152809.53;;;-5.15
60936;BMP280;46804;51.786;19.520;2023-03-01T05:28:59;152785.44;;;-5.24
60936;BMP280;46804;51.786;19.520;2023-03-01T05:33:00;152796.81;;;-5.20
60936;BMP280;46804;51.786;19.520;2023-03-01T05:37:01;152788.00;;;-5.23
60936;BMP280;46804;51.786;19.520;2023-03-01T05:41:02;152817.13;;;-5.12
60936;BMP280;46804;51.786;19.520;2023-03-01T05:45:03;152826.00;;;-5.08
60936;BMP280;46804;51.786;19.520;2023-03-01T05:49:04;152826.00;;;-5.08
60936;BMP280;46804;51.786;19.520;2023-03-01T05:53:16;152842.47;;;-5.02
60936;BMP280;46804;51.786;19.520;2023-03-01T05:57:18;152874.09;;;-4.90
60936;BMP280;46804;51.786;19.520;2023-03-01T06:01:19;152905.81;;;-4.77
60936;BMP280;46804;51.786;19.520;2023-03-01T06:05:20;152924.78;;;-4.70
60936;BMP280;46804;51.786;19.520;2023-03-01T06:09:20;152964.06;;;-4.55
60936;BMP280;46804;51.786;19.520;2023-03-01T06:13:22;152970.47;;;-4.52
60936;BMP280;46804;51.786;19.520;2023-03-01T06:17:23;153023.66;;;-4.32
60936;BMP280;46804;51.786;19.520;2023-03-01T06:21:24;153107.34;;;-3.99
60936;BMP280;46804;51.786;19.520;2023-03-01T06:25:26;153192.31;;;-3.66
60936;BMP280;46804;51.786;19.520;2023-03-01T06:29:27;153262.09;;;-3.39
60936;BMP280;46804;51.786;19.520;2023-03-01T06:33:28;153340.78;;;-3.08
60936;BMP280;46804;51.786;19.520;2023-03-01T06:37:28;153401.69;;;-2.85
60936;BMP280;46804;51.786;19.520;2023-03-01T06:41:29;153468.97;;;-2.59
60936;BMP280;46804;51.786;19.520;2023-03-01T06:45:30;153509.59;;;-2.43
60936;BMP280;46804;51.786;19.520;2023-03-01T06:49:30;153568.00;;;-2.20
60936;BMP280;46804;51.786;19.520;2023-03-01T06:53:31;153630.22;;;-1.96
60936;BMP280;46804;51.786;19.520;2023-03-01T06:57:32;153687.44;;;-1.74
60936;BMP280;46804;51.786;19.520;2023-03-01T07:01:33;153752.22;;;-1.49
60936;BMP280;46804;51.786;19.520;2023-03-01T07:05:33;153806.88;;;-1.28
60936;BMP280;46804;51.786;19.520;2023-03-01T07:09:35;153852.63;;;-1.10
60936;BMP280;46804;51.786;19.520;2023-03-01T07:13:35;153958.16;;;-0.69
60936;BMP280;46804;51.786;19.520;2023-03-01T07:17:36;154053.56;;;-0.32
60936;BMP280;46804;51.786;19.520;2023-03-01T07:21:37;154126.09;;;-0.04
60936;BMP280;46804;51.786;19.520;2023-03-01T07:25:41;154235.50;;;0.38
60936;BMP280;46804;51.786;19.520;2023-03-01T07:29:41;154339.91;;;0.79
60936;BMP280;46804;51.786;19.520;2023-03-01T07:33:42;154439.22;;;1.17
60936;BMP280;46804;51.786;19.520;2023-03-01T07:37:43;154552.66;;;1.61
60936;BMP280;46804;51.786;19.520;2023-03-01T07:41:44;154636.75;;;1.94
60936;BMP280;46804;51.786;19.520;2023-03-01T07:45:45;154774.41;;;2.47
60936;BMP280;46804;51.786;19.520;2023-03-01T07:49:45;154858.59;;;2.79
60936;BMP280;46804;51.786;19.520;2023-03-01T07:53:47;154959.38;;;3.18
60936;BMP280;46804;51.786;19.520;2023-03-01T07:57:48;155047.38;;;3.52
60936;BMP280;46804;51.786;19.520;2023-03-01T08:01:49;155140.59;;;3.88
60936;BMP280;46804;51.786;19.520;2023-03-01T08:05:49;155236.34;;;4.25
60936;BMP280;46804;51.786;19.520;2023-03-01T08:09:50;155290.00;;;4.46
60936;BMP280;46804;51.786;19.520;2023-03-01T08:13:51;155420.28;;;4.96
60936;BMP280;46804;51.786;19.520;2023-03-01T08:17:51;155468.81;;;5.15
60936;BMP280;46804;51.786;19.520;2023-03-01T08:21:52;155525.06;;;5.37
60936;BMP280;46804;51.786;19.520;2023-03-01T08:25:53;155606.88;;;5.68
60936;BMP280;46804;51.786;19.520;2023-03-01T08:29:53;155563.41;;;5.51
60936;BMP280;46804;51.786;19.520;2023-03-01T08:33:57;155586.41;;;5.60
60936;BMP280;46804;51.786;19.520;2023-03-01T08:37:58;155756.53;;;6.26
60936;BMP280;46804;51.786;19.520;2023-03-01T08:41:58;155893.41;;;6.78
60936;BMP280;46804;51.786;19.520;2023-03-01T08:45:59;156027.78;;;7.30
60936;BMP280;46804;51.786;19.520;2023-03-01T08:50:00;156155.84;;;7.79
60936;BMP280;46804;51.786;19.520;2023-03-01T08:54:00;156369.84;;;8.62
60936;BMP280;46804;51.786;19.520;2023-03-01T08:58:01;156508.22;;;9.15
60936;BMP280;46804;51.786;19.520;2023-03-01T09:02:03;156594.13;;;9.48
60936;BMP280;46804;51.786;19.520;2023-03-01T09:06:06;156587.72;;;9.46
60936;BMP280;46804;51.786;19.520;2023-03-01T09:10:08;156839.19;;;10.42
60936;BMP280;46804;51.786;19.520;2023-03-01T09:14:09;157054.84;;;11.25
60936;BMP280;46804;51.786;19.520;2023-03-01T09:18:10;157194.84;;;11.79
60936;BMP280;46804;51.786;19.520;2023-03-01T09:22:10;157320.78;;;12.27
60936;BMP280;46804;51.786;19.520;2023-03-01T09:26:17;157545.72;;;13.13
60936;BMP280;46804;51.786;19.520;2023-03-01T09:30:20;157662.78;;;13.58
60936;BMP280;46804;51.786;19.520;2023-03-01T09:34:21;157550.88;;;13.15
60936;BMP280;46804;51.786;19.520;2023-03-01T09:38:23;157694.94;;;13.70
60936;BMP280;46804;51.786;19.520;2023-03-01T09:42:25;157803.06;;;14.12
60936;BMP280;46804;51.786;19.520;2023-03-01T09:46:27;157774.75;;;14.01
60936;BMP280;46804;51.786;19.520;2023-03-01T09:50:33;157927.88;;;14.60
60936;BMP280;46804;51.786;19.520;2023-03-01T09:54:35;158159.63;;;15.48
60936;BMP280;46804;51.786;19.520;2023-03-01T09:58:48;158256.25;;;15.85
60936;BMP280;46804;51.786;19.520;2023-03-01T10:03:16;158350.38;;;16.21
60936;BMP280;46804;51.786;19.520;2023-03-01T10:07:40;158168.69;;;15.52
60936;BMP280;46804;51.786;19.520;2023-03-01T10:11:53;158332.28;;;16.14
60936;BMP280;46804;51.786;19.520;2023-03-01T10:16:09;158314.25;;;16.07
60936;BMP280;46804;51.786;19.520;2023-03-01T10:20:22;158349.09;;;16.21
60936;BMP280;46804;51.786;19.520;2023-03-01T10:24:23;158570.78;;;17.05
60936;BMP280;46804;51.786;19.520;2023-03-01T10:32:37;158645.63;;;17.34
60936;BMP280;46804;51.786;19.520;2023-03-01T10:36:38;158715.25;;;17.61
60936;BMP280;46804;51.786;19.520;2023-03-01T10:41:00;158904.94;;;18.33
60936;BMP280;46804;51.786;19.520;2023-03-01T10:45:37;158992.72;;;18.67
60936;BMP280;46804;51.786;19.520;2023-03-01T10:49:38;158984.94;;;18.64
60936;BMP280;46804;51.786;19.520;2023-03-01T10:53:48;159265.22;;;19.71
60936;BMP280;46804;51.786;19.520;2023-03-01T10:58:06;158890.75;;;18.28
60936;BMP280;46804;51.786;19.520;2023-03-01T11:02:42;159345.34;;;20.01
60936;BMP280;46804;51.786;19.520;2023-03-01T11:06:39;159570.22;;;20.87
60936;BMP280;46804;51.786;19.520;2023-03-01T11:10:40;159353.09;;;20.04
60936;BMP280;46804;51.786;19.520;2023-03-01T11:14:49;159323.38;;;19.93
60936;BMP280;46804;51.786;19.520;2023-03-01T11:19:20;158320.69;;;16.10
60936;BMP280;46804;51.786;19.520;2023-03-01T11:23:22;158524.34;;;16.88
60936;BMP280;46804;51.786;19.520;2023-03-01T11:27:26;158597.88;;;17.16
60936;BMP280;46804;51.786;19.520;2023-03-01T11:31:28;158808.13;;;17.96
60936;BMP280;46804;51.786;19.520;2023-03-01T11:35:30;158930.78;;;18.43
60936;BMP280;46804;51.786;19.520;2023-03-01T11:43:56;159231.63;;;19.58
60936;BMP280;46804;51.786;19.520;2023-03-01T11:48:23;159086.97;;;19.03
60936;BMP280;46804;51.786;19.520;2023-03-01T11:52:36;159505.63;;;20.62
60936;BMP280;46804;51.786;19.520;2023-03-01T11:56:50;159342.75;;;20.00
60936;BMP280;46804;51.786;19.520;2023-03-01T12:01:14;159350.47;;;20.03
60936;BMP280;46804;51.786;19.520;2023-03-01T12:05:48;159250.97;;;19.65
60936;BMP280;46804;51.786;19.520;2023-03-01T12:10:17;159274.22;;;19.74
60936;BMP280;46804;51.786;19.520;2023-03-01T12:14:39;159316.94;;;19.90
60936;BMP280;46804;51.786;19.520;2023-03-01T12:18:47;158759.13;;;17.77
60936;BMP280;46804;51.786;19.520;2023-03-01T12:31:32;159221.28;;;19.54
60936;BMP280;46804;51.786;19.520;2023-03-01T12:35:57;158884.31;;;18.25
60936;BMP280;46804;51.786;19.520;2023-03-01T12:44:39;159270.34;;;19.73
60936;BMP280;46804;51.786;19.520;2023-03-01T12:49:04;159443.53;;;20.39
60936;BMP280;46804;51.786;19.520;2023-03-01T12:53:27;158586.22;;;17.11
60936;BMP280;46804;51.786;19.520;2023-03-01T13:06:22;159057.25;;;18.91
60936;BMP280;46804;51.786;19.520;2023-03-01T13:10:52;159125.72;;;19.17
60936;BMP280;46804;51.786;19.520;2023-03-01T13:14:54;159495.22;;;20.58
60936;BMP280;46804;51.786;19.520;2023-03-01T13:19:42;159592.22;;;20.95
60936;BMP280;46804;51.786;19.520;2023-03-01T13:23:38;159598.66;;;20.98
60936;BMP280;46804;51.786;19.520;2023-03-01T13:27:39;159841.84;;;21.90
60936;BMP280;46804;51.786;19.520;2023-03-01T13:35:41;159612.88;;;21.03
60936;BMP280;46804;51.786;19.520;2023-03-01T13:39:42;159310.44;;;19.88
60936;BMP280;46804;51.786;19.520;2023-03-01T13:43:46;159615.47;;;21.04
60936;BMP280;46804;51.786;19.520;2023-03-01T13:47:52;159834.03;;;21.87
60936;BMP280;46804;51.786;19.520;2023-03-01T13:51:54;159510.78;;;20.64
60936;BMP280;46804;51.786;19.520;2023-03-01T13:55:57;159399.59;;;20.22
60936;BMP280;46804;51.786;19.520;2023-03-01T13:59:58;159482.31;;;20.53
60936;BMP280;46804;51.786;19.520;2023-03-01T14:03:59;159519.81;;;20.68
60936;BMP280;46804;51.786;19.520;2023-03-01T14:08:02;159565.06;;;20.85
60936;BMP280;46804;51.786;19.520;2023-03-01T14:12:21;159347.91;;;20.02
60936;BMP280;46804;51.786;19.520;2023-03-01T14:20:58;159250.97;;;19.65
60936;BMP280;46804;51.786;19.520;2023-03-01T14:25:17;159167.03;;;19.33
60936;BMP280;46804;51.786;19.520;2023-03-01T14:29:34;159176.09;;;19.37
60936;BMP280;46804;51.786;19.520;2023-03-01T14:33:36;159071.53;;;18.97
60936;BMP280;46804;51.786;19.520;2023-03-01T14:37:39;158797.84;;;17.92
60936;BMP280;46804;51.786;19.520;2023-03-01T14:41:40;158862.38;;;18.17
60936;BMP280;46804;51.786;19.520;2023-03-01T14:45:47;159098.59;;;19.07
60936;BMP280;46804;51.786;19.520;2023-03-01T14:49:53;159205.78;;;19.48
60936;BMP280;46804;51.786;19.520;2023-03-01T14:53:56;159021.13;;;18.77
60936;BMP280;46804;51.786;19.520;2023-03-01T14:57:57;158954.00;;;18.52
60936;BMP280;46804;51.786;19.520;2023-03-01T15:01:58;158893.31;;;18.29
60936;BMP280;46804;51.786;19.520;2023-03-01T15:06:01;158546.25;;;16.96
60936;BMP280;46804;51.786;19.520;2023-03-01T15:10:04;158243.38;;;15.80
60936;BMP280;46804;51.786;19.520;2023-03-01T15:14:26;158055.31;;;15.08
60936;BMP280;46804;51.786;19.520;2023-03-01T15:18:29;157913.69;;;14.54
60936;BMP280;46804;51.786;19.520;2023-03-01T15:22:30;157646.03;;;13.52
60936;BMP280;46804;51.786;19.520;2023-03-01T15:26:42;157447.97;;;12.76
60936;BMP280;46804;51.786;19.520;2023-03-01T15:30:43;157322.03;;;12.27
60936;BMP280;46804;51.786;19.520;2023-03-01T15:34:43;157185.88;;;11.75
60936;BMP280;46804;51.786;19.520;2023-03-01T15:38:52;157058.66;;;11.26
60936;BMP280;46804;51.786;19.520;2023-03-01T15:42:54;156923.91;;;10.75
60936;BMP280;46804;51.786;19.520;2023-03-01T15:46:56;156745.53;;;10.06
60936;BMP280;46804;51.786;19.520;2023-03-01T15:50:58;156562.09;;;9.36
60936;BMP280;46804;51.786;19.520;2023-03-01T15:55:01;156580.03;;;9.43
60936;BMP280;46804;51.786;19.520;2023-03-01T15:59:03;156431.34;;;8.85
60936;BMP280;46804;51.786;19.520;2023-03-01T16:03:04;156321.13;;;8.43
60936;BMP280;46804;51.786;19.520;2023-03-01T16:07:05;156272.47;;;8.24
60936;BMP280;46804;51.786;19.520;2023-03-01T16:11:14;156167.38;;;7.84
60936;BMP280;46804;51.786;19.520;2023-03-01T16:15:24;156036.78;;;7.34
60936;BMP280;46804;51.786;19.520;2023-03-01T16:19:25;156030.38;;;7.31
60936;BMP280;46804;51.786;19.520;2023-03-01T16:23:25;155979.19;;;7.11
60936;BMP280;46804;51.786;19.520;2023-03-01T16:27:26;155896.00;;;6.79
60936;BMP280;46804;51.786;19.520;2023-03-01T16:31:27;155770.63;;;6.31
60936;BMP280;46804;51.786;19.520;2023-03-01T16:35:29;155794.91;;;6.41
60936;BMP280;46804;51.786;19.520;2023-03-01T16:39:29;155741.22;;;6.20
60936;BMP280;46804;51.786;19.520;2023-03-01T16:43:30;155681.09;;;5.97
60936;BMP280;46804;51.786;19.520;2023-03-01T16:47:32;155604.31;;;5.67
60936;BMP280;46804;51.786;19.520;2023-03-01T16:51:33;155476.53;;;5.18
60936;BMP280;46804;51.786;19.520;2023-03-01T16:55:36;155404.94;;;4.90
60936;BMP280;46804;51.786;19.520;2023-03-01T16:59:38;155445.81;;;5.06
60936;BMP280;46804;51.786;19.520;2023-03-01T17:03:39;155288.69;;;4.45
60936;BMP280;46804;51.786;19.520;2023-03-01T17:07:40;155330.84;;;4.62
60936;BMP280;46804;51.786;19.520;2023-03-01T17:11:41;155320.63;;;4.58
60936;BMP280;46804;51.786;19.520;2023-03-01T17:15:41;155282.31;;;4.43
60936;BMP280;46804;51.786;19.520;2023-03-01T17:19:42;155199.28;;;4.11
60936;BMP280;46804;51.786;19.520;2023-03-01T17:23:45;155145.69;;;3.90
60936;BMP280;46804;51.786;19.520;2023-03-01T17:27:46;155097.16;;;3.71
60936;BMP280;46804;51.786;19.520;2023-03-01T17:31:47;155063.97;;;3.59
60936;BMP280;46804;51.786;19.520;2023-03-01T17:35:49;154947.88;;;3.14
60936;BMP280;46804;51.786;19.520;2023-03-01T17:39:49;154912.13;;;3.00
60936;BMP280;46804;51.786;19.520;2023-03-01T17:43:50;154835.63;;;2.70
60936;BMP280;46804;51.786;19.520;2023-03-01T17:47:51;154812.69;;;2.62
60936;BMP280;46804;51.786;19.520;2023-03-01T17:51:52;154815.22;;;2.63
60936;BMP280;46804;51.786;19.520;2023-03-01T17:56:02;154799.94;;;2.57
60936;BMP280;46804;51.786;19.520;2023-03-01T18:00:04;154780.78;;;2.49
60936;BMP280;46804;51.786;19.520;2023-03-01T18:04:05;154770.56;;;2.45
60936;BMP280;46804;51.786;19.520;2023-03-01T18:08:06;154748.88;;;2.37
60936;BMP280;46804;51.786;19.520;2023-03-01T18:12:07;154734.88;;;2.32
60936;BMP280;46804;51.786;19.520;2023-03-01T18:16:10;154652.00;;;2.00
60936;BMP280;46804;51.786;19.520;2023-03-01T18:20:11;154686.41;;;2.13
60936;BMP280;46804;51.786;19.520;2023-03-01T18:24:13;154664.81;;;2.04
60936;BMP280;46804;51.786;19.520;2023-03-01T18:28:13;154623.97;;;1.89
60936;BMP280;46804;51.786;19.520;2023-03-01T18:32:14;154602.31;;;1.80
60936;BMP280;46804;51.786;19.520;2023-03-01T18:36:24;154579.38;;;1.71
60936;BMP280;46804;51.786;19.520;2023-03-01T18:40:25;154544.97;;;1.58
60936;BMP280;46804;51.786;19.520;2023-03-01T18:44:26;154539.88;;;1.56
60936;BMP280;46804;51.786;19.520;2023-03-01T18:48:26;154506.72;;;1.43
60936;BMP280;46804;51.786;19.520;2023-03-01T18:52:29;154506.72;;;1.43
60936;BMP280;46804;51.786;19.520;2023-03-01T18:56:31;154492.75;;;1.38
60936;BMP280;46804;51.786;19.520;2023-03-01T19:00:32;154431.59;;;1.14
60936;BMP280;46804;51.786;19.520;2023-03-01T19:04:33;154412.50;;;1.07
60936;BMP280;46804;51.786;19.520;2023-03-01T19:08:34;154393.38;;;1.00
60936;BMP280;46804;51.786;19.520;2023-03-01T19:12:34;154387.00;;;0.97
60936;BMP280;46804;51.786;19.520;2023-03-01T19:16:35;154379.41;;;0.94
60936;BMP280;46804;51.786;19.520;2023-03-01T19:20:36;154376.81;;;0.93
60936;BMP280;46804;51.786;19.520;2023-03-01T19:24:37;154347.53;;;0.82
60936;BMP280;46804;51.786;19.520;2023-03-01T19:28:38;154338.66;;;0.78
60936;BMP280;46804;51.786;19.520;2023-03-01T19:32:39;154319.53;;;0.71
60936;BMP280;46804;51.786;19.520;2023-03-01T19:36:41;154285.16;;;0.58
60936;BMP280;46804;51.786;19.520;2023-03-01T19:40:42;154249.53;;;0.44
60936;BMP280;46804;51.786;19.520;2023-03-01T19:44:43;154224.06;;;0.34
60936;BMP280;46804;51.786;19.520;2023-03-01T19:48:43;154199.88;;;0.25
60936;BMP280;46804;51.786;19.520;2023-03-01T19:52:44;154227.88;;;0.35
60936;BMP280;46804;51.786;19.520;2023-03-01T19:56:46;154216.44;;;0.31
60936;BMP280;46804;51.786;19.520;2023-03-01T20:00:46;154211.34;;;0.29
60936;BMP280;46804;51.786;19.520;2023-03-01T20:04:47;154183.34;;;0.18
60936;BMP280;46804;51.786;19.520;2023-03-01T20:08:48;154165.53;;;0.11
60936;BMP280;46804;51.786;19.520;2023-03-01T20:12:48;154152.75;;;0.06
60936;BMP280;46804;51.786;19.520;2023-03-01T20:16:50;154165.53;;;0.11
60936;BMP280;46804;51.786;19.520;2023-03-01T20:20:51;154148.97;;;0.05
60936;BMP280;46804;51.786;19.520;2023-03-01T20:24:52;154150.25;;;0.05
60936;BMP280;46804;51.786;19.520;2023-03-01T20:28:54;154147.72;;;0.04
60936;BMP280;46804;51.786;19.520;2023-03-01T20:32:56;154100.63;;;-0.14
60936;BMP280;46804;51.786;19.520;2023-03-01T20:36:57;154096.78;;;-0.15
60936;BMP280;46804;51.786;19.520;2023-03-01T20:41:05;154085.34;;;-0.20
60936;BMP280;46804;51.786;19.520;2023-03-01T20:45:07;154096.78;;;-0.15
60936;BMP280;46804;51.786;19.520;2023-03-01T20:49:07;154072.63;;;-0.25
60936;BMP280;46804;51.786;19.520;2023-03-01T20:53:10;154067.53;;;-0.27
60936;BMP280;46804;51.786;19.520;2023-03-01T20:57:10;154063.75;;;-0.28
60936;BMP280;46804;51.786;19.520;2023-03-01T21:01:17;154066.28;;;-0.27
60936;BMP280;46804;51.786;19.520;2023-03-01T21:05:18;154067.53;;;-0.27
60936;BMP280;46804;51.786;19.520;2023-03-01T21:09:19;154058.66;;;-0.30
60936;BMP280;46804;51.786;19.520;2023-03-01T21:13:21;154058.66;;;-0.30
60936;BMP280;46804;51.786;19.520;2023-03-01T21:17:21;154043.38;;;-0.36
60936;BMP280;46804;51.786;19.520;2023-03-01T21:21:22;154026.84;;;-0.42
60936;BMP280;46804;51.786;19.520;2023-03-01T21:25:23;153996.34;;;-0.54
60936;BMP280;46804;51.786;19.520;2023-03-01T21:29:25;153981.06;;;-0.60
60936;BMP280;46804;51.786;19.520;2023-03-01T21:33:26;153977.22;;;-0.62
60936;BMP280;46804;51.786;19.520;2023-03-01T21:37:26;153978.47;;;-0.61
60936;BMP280;46804;51.786;19.520;2023-03-01T21:41:30;153972.13;;;-0.64
60936;BMP280;46804;51.786;19.520;2023-03-01T21:45:33;153955.59;;;-0.70
60936;BMP280;46804;51.786;19.520;2023-03-01T21:49:34;153933.97;;;-0.78
60936;BMP280;46804;51.786;19.520;2023-03-01T21:53:35;153946.72;;;-0.73
60936;BMP280;46804;51.786;19.520;2023-03-01T21:57:37;153933.97;;;-0.78
60936;BMP280;46804;51.786;19.520;2023-03-01T22:01:43;153936.53;;;-0.77
60936;BMP280;46804;51.786;19.520;2023-03-01T22:05:56;153936.53;;;-0.77
60936;BMP280;46804;51.786;19.520;2023-03-01T22:09:57;153933.97;;;-0.78
60936;BMP280;46804;51.786;19.520;2023-03-01T22:13:58;153926.38;;;-0.81
60936;BMP280;46804;51.786;19.520;2023-03-01T22:17:59;153922.53;;;-0.83
60936;BMP280;46804;51.786;19.520;2023-03-01T22:21:59;153898.38;;;-0.92
60936;BMP280;46804;51.786;19.520;2023-03-01T22:26:00;153918.75;;;-0.84
60936;BMP280;46804;51.786;19.520;2023-03-01T22:30:03;153911.09;;;-0.87
60936;BMP280;46804;51.786;19.520;2023-03-01T22:34:04;153895.88;;;-0.93
60936;BMP280;46804;51.786;19.520;2023-03-01T22:38:05;153892.03;;;-0.95
60936;BMP280;46804;51.786;19.520;2023-03-01T22:42:06;153899.66;;;-0.92
60936;BMP280;46804;51.786;19.520;2023-03-01T22:46:11;153900.97;;;-0.91
60936;BMP280;46804;51.786;19.520;2023-03-01T22:50:13;153917.50;;;-0.85
60936;BMP280;46804;51.786;19.520;2023-03-01T22:54:16;153923.84;;;-0.82
60936;BMP280;46804;51.786;19.520;2023-03-01T22:58:17;153936.53;;;-0.77
60936;BMP280;46804;51.786;19.520;2023-03-01T23:02:18;153922.53;;;-0.83
60936;BMP280;46804;51.786;19.520;2023-03-01T23:06:20;153900.97;;;-0.91
60936;BMP280;46804;51.786;19.520;2023-03-01T23:10:20;153879.34;;;-1.00
60936;BMP280;46804;51.786;19.520;2023-03-01T23:14:22;153883.13;;;-0.98
60936;BMP280;46804;51.786;19.520;2023-03-01T23:18:23;153869.16;;;-1.03
60936;BMP280;46804;51.786;19.520;2023-03-01T23:22:24;153885.69;;;-0.97
60936;BMP280;46804;51.786;19.520;2023-03-01T23:26:26;153869.16;;;-1.03
60936;BMP280;46804;51.786;19.520;2023-03-01T23:30:26;153876.78;;;-1.01
60936;BMP280;46804;51.786;19.520;2023-03-01T23:34:27;153872.97;;;-1.02